Time;durP1;ratioP1;P1;durP2;ratioP2;P2;SDS_P1;SDS_P2;PMS_P1;PMS_P2;Temp;Humidity;BMP_temperature;BMP_pressure;BME280_temperature;BME280_humidity;BME280_pressure;Samples;Min_cycle;Max_cycle;Signal;HPM_P1;HPM_P2
2024/02/03 00:02:08;;;;;;;;;49.67;39.67;;;;;6.46;96.03;100096.41;6308482;20;3597182;-48
2024/02/03 00:04:38;;;;;;;;;52.67;37.00;;;;;6.45;96.77;100097.31;6311120;20;3632612;-51
2024/02/03 00:07:06;;;;;;;;;46.33;38.33;;;;;6.59;95.15;100100.34;6314922;20;3602380;-48
2024/02/03 00:09:36;;;;;;;;;53.00;38.00;;;;;6.54;95.45;100088.97;6278715;20;2875488;-51
2024/02/03 00:12:07;;;;;;;;;53.00;37.33;;;;;6.49;96.52;100086.47;6312512;20;3636711;-51
2024/02/03 00:14:36;;;;;;;;;48.50;37.50;;;;;6.47;96.93;100082.13;6275514;20;2861493;-51
2024/02/03 00:17:06;;;;;;;;;52.00;38.00;;;;;6.47;96.55;100084.81;6277752;20;2886778;-48
2024/02/03 00:19:35;;;;;;;;;48.50;40.00;;;;;6.52;96.03;100082.84;6310842;20;2848208;-45
2024/02/03 00:22:04;;;;;;;;;53.33;40.33;;;;;6.49;96.19;100083.81;6278630;20;2868082;-47
2024/02/03 00:24:34;;;;;;;;;54.00;41.67;;;;;6.65;94.67;100078.75;6307457;20;2869077;-46
2024/02/03 00:27:05;;;;;;;;;46.00;38.33;;;;;6.58;95.32;100080.81;6308988;20;2856740;-46
2024/02/03 00:29:34;;;;;;;;;50.00;39.00;;;;;6.60;95.23;100070.91;6313572;20;2723175;-45
2024/02/03 00:32:03;;;;;;;;;47.00;41.00;;;;;6.47;95.95;100066.13;6276927;20;2804413;-44
2024/02/03 00:34:33;;;;;;;;;46.33;39.67;;;;;6.60;95.57;100062.91;6276309;20;2877415;-44
2024/02/03 00:37:02;;;;;;;;;51.00;42.00;;;;;6.53;95.26;100069.44;6306628;20;2876295;-44
2024/02/03 00:39:30;;;;;;;;;55.00;42.00;;;;;6.37;95.72;100061.16;6279398;20;2857568;-45
2024/02/03 00:42:00;;;;;;;;;50.33;40.00;;;;;6.60;95.44;100051.38;6279040;20;2866091;-45
2024/02/03 00:44:29;;;;;;;;;53.00;41.00;;;;;6.60;94.22;100057.59;6309790;20;2865949;-44
2024/02/03 00:46:59;;;;;;;;;53.33;41.67;;;;;6.30;96.34;100049.00;6274844;20;3602529;-44
2024/02/03 00:49:28;;;;;;;;;57.33;41.00;;;;;6.44;96.46;100058.25;6307832;20;2878557;-44
2024/02/03 00:51:58;;;;;;;;;53.33;40.33;;;;;6.44;97.46;100055.59;6310188;20;3628417;-45
2024/02/03 00:54:27;;;;;;;;;48.50;39.00;;;;;6.37;97.93;100044.28;6307020;20;2852484;-44
2024/02/03 00:56:56;;;;;;;;;51.00;41.00;;;;;6.42;97.19;100042.28;6278683;20;2857673;-44
2024/02/03 00:59:26;;;;;;;;;47.67;39.67;;;;;6.25;98.37;100034.97;6278949;20;2881522;-45
2024/02/03 01:01:55;;;;;;;;;44.00;39.33;;;;;6.41;97.74;100037.03;6307348;20;2867013;-44
2024/02/03 01:04:24;;;;;;;;;42.00;39.00;;;;;6.19;99.12;100027.22;6303024;20;2859695;-45
2024/02/03 01:06:55;;;;;;;;;50.00;43.50;;;;;6.40;98.66;100035.28;6275953;20;2494001;-45
2024/02/03 01:09:25;;;;;;;;;49.33;40.00;;;;;6.34;97.44;100031.94;6277884;20;2880688;-44
2024/02/03 01:11:55;;;;;;;;;52.33;38.33;;;;;6.31;99.10;100028.53;6308608;20;2889979;-46
2024/02/03 01:14:24;;;;;;;;;51.50;41.50;;;;;6.40;98.07;100032.63;6306721;20;2859672;-44
2024/02/03 01:16:53;;;;;;;;;51.00;41.50;;;;;6.31;99.05;100029.38;6274034;20;2844300;-46
2024/02/03 01:19:22;;;;;;;;;54.00;43.00;;;;;6.32;98.85;100025.81;6275693;20;2730490;-44
2024/02/03 01:21:51;;;;;;;;;52.67;41.00;;;;;6.27;98.80;100027.78;6307776;20;2852372;-43
2024/02/03 01:24:20;;;;;;;;;46.00;38.50;;;;;6.21;99.35;100028.00;6305482;20;2861735;-43
2024/02/03 01:26:50;;;;;;;;;51.33;42.67;;;;;6.32;99.21;100020.47;6276580;20;2860740;-45
2024/02/03 01:29:33;;;;;;;;;51.33;40.67;;;;;6.26;98.74;100028.69;6300333;20;3600319;-44
2024/02/03 01:32:02;;;;;;;;;55.00;44.50;;;;;6.54;97.13;100030.28;6303998;20;2849215;-44
2024/02/03 01:34:32;;;;;;;;;54.00;40.67;;;;;6.32;98.52;100028.47;6274483;20;2892039;-45
2024/02/03 01:37:01;;;;;;;;;55.67;41.33;;;;;6.53;97.34;100025.88;6306458;20;3620070;-45
2024/02/03 01:39:30;;;;;;;;;41.50;36.50;;;;;6.29;98.32;100025.94;6303794;20;2847152;-45
2024/02/03 01:41:59;;;;;;;;;49.50;39.00;;;;;6.32;97.42;100025.81;6274586;20;2850419;-45
2024/02/03 01:44:33;;;;;;;;;45.00;40.00;;;;;6.51;96.82;100025.09;6274973;20;2860847;-48
2024/02/03 01:47:04;;;;;;;;;75.33;56.33;;;;;6.44;96.65;100020.91;6275819;20;3625212;-45
2024/02/03 01:49:34;;;;;;;;;51.33;41.33;;;;;6.67;94.43;100010.19;6305330;20;2861748;-44
2024/02/03 01:52:05;;;;;;;;;44.33;37.00;;;;;6.61;93.88;99999.78;6309533;20;3587731;-45
2024/02/03 01:54:35;;;;;;;;;49.33;39.00;;;;;6.65;94.20;99990.72;6308362;20;3582546;-44
2024/02/03 01:57:06;;;;;;;;;40.67;35.33;;;;;6.65;93.96;99982.69;6274800;20;2851370;-45
2024/02/03 01:59:36;;;;;;;;;46.67;37.33;;;;;6.63;93.73;99962.34;6303505;20;2863877;-44
2024/02/03 02:02:05;;;;;;;;;52.33;38.67;;;;;6.64;94.19;99956.97;6303757;20;2862867;-45
2024/02/03 02:04:35;;;;;;;;;48.33;38.33;;;;;6.59;94.45;99958.94;6305535;20;2877359;-44
2024/02/03 02:07:05;;;;;;;;;48.67;37.67;;;;;6.66;93.75;99955.13;6307911;20;2882783;-47
2024/02/03 02:09:34;;;;;;;;;53.50;41.50;;;;;6.64;93.54;99948.97;6307168;20;2855529;-43
2024/02/03 02:12:03;;;;;;;;;50.50;41.00;;;;;6.58;94.03;99946.53;6277052;20;2853482;-45
2024/02/03 02:14:31;;;;;;;;;44.00;38.00;;;;;6.60;94.48;99945.53;6269517;20;2489857;-45
2024/02/03 02:17:01;;;;;;;;;45.33;38.00;;;;;6.57;93.33;99942.13;6275900;20;2873439;-46
2024/02/03 02:19:30;;;;;;;;;43.33;38.00;;;;;6.51;94.45;99940.59;6307145;20;2853488;-43
2024/02/03 02:21:59;;;;;;;;;49.00;40.00;;;;;6.53;93.92;99924.50;6304182;20;2852393;-45
2024/02/03 02:24:29;;;;;;;;;49.67;39.33;;;;;6.57;94.17;99927.00;6274810;20;2850338;-45
2024/02/03 02:26:58;;;;;;;;;48.67;39.00;;;;;6.68;93.54;99925.69;6306242;20;3594032;-45
2024/02/03 02:29:27;;;;;;;;;50.00;37.33;;;;;6.71;93.04;99915.72;6310430;20;3629464;-44
2024/02/03 02:31:57;;;;;;;;;46.33;38.33;;;;;6.66;92.68;99912.44;6272234;20;3618067;-45
2024/02/03 02:34:26;;;;;;;;;37.33;34.67;;;;;6.68;93.00;99921.22;6309351;20;3607545;-44
2024/02/03 02:36:55;;;;;;;;;45.33;36.00;;;;;6.57;93.18;99918.13;6275459;20;2864894;-45
2024/02/03 02:39:25;;;;;;;;;47.00;36.00;;;;;6.62;93.37;99921.47;6307402;20;3609668;-44
2024/02/03 02:41:54;;;;;;;;;43.67;37.00;;;;;6.57;93.44;99928.78;6309874;20;3599212;-44
2024/02/03 02:44:22;;;;;;;;;40.00;35.50;;;;;6.58;93.96;99925.19;6271321;20;2848201;-44
2024/02/03 02:46:51;;;;;;;;;42.50;36.50;;;;;6.65;93.33;99921.34;6275143;20;2855514;-46
2024/02/03 02:49:19;;;;;;;;;45.00;38.00;;;;;6.52;93.83;99920.13;6270363;20;2487851;-47
2024/02/03 02:51:48;;;;;;;;;46.00;38.50;;;;;6.55;94.25;99928.00;6274480;20;2873238;-45
2024/02/03 02:54:17;;;;;;;;;36.00;31.00;;;;;6.51;94.52;99923.72;6274984;20;2855561;-45
2024/02/03 02:56:46;;;;;;;;;49.00;38.00;;;;;6.46;95.49;99909.72;6274936;20;2864898;-44
2024/02/03 02:59:17;;;;;;;;;39.50;31.50;;;;;6.47;94.77;99916.78;6272567;20;2857592;-43
2024/02/03 03:01:47;;;;;;;;;47.67;37.00;;;;;6.45;94.39;99911.50;6272161;20;3617015;-47
2024/02/03 03:04:17;;;;;;;;;48.00;38.67;;;;;6.37;95.11;99911.81;6305668;20;2847259;-45
2024/02/03 03:06:46;;;;;;;;;47.67;38.67;;;;;6.40;95.17;99916.16;6310797;20;3605461;-45
2024/02/03 03:09:16;;;;;;;;;42.00;37.00;;;;;6.44;95.01;99907.09;6272721;20;2861939;-43
2024/02/03 03:11:44;;;;;;;;;44.00;37.00;;;;;6.43;95.11;99893.84;6276758;20;2859646;-43
2024/02/03 03:14:14;;;;;;;;;41.33;35.00;;;;;6.37;95.86;99894.94;6279315;20;2861824;-43
2024/02/03 03:16:44;;;;;;;;;46.33;37.67;;;;;6.50;95.85;99895.28;6310771;20;2853506;-43
2024/02/03 03:19:12;;;;;;;;;44.50;38.00;;;;;6.45;94.18;99900.84;6311610;20;2862777;-45
2024/02/03 03:21:42;;;;;;;;;43.00;35.00;;;;;6.60;93.26;99891.31;6275878;20;2863855;-44
2024/02/03 03:24:11;;;;;;;;;40.33;35.00;;;;;6.56;92.82;99900.41;6312322;20;3596222;-43
2024/02/03 03:26:42;;;;;;;;;37.67;34.33;;;;;6.57;92.49;99894.97;6278582;20;2862878;-44
2024/02/03 03:29:12;;;;;;;;;43.00;38.00;;;;;6.28;93.11;99898.00;6311837;20;3601279;-43
2024/02/03 03:31:44;;;;;;;;;38.50;36.50;;;;;6.64;92.64;99908.94;6309039;20;2852368;-44
2024/02/03 03:34:13;;;;;;;;;37.50;34.00;;;;;6.48;92.43;99916.72;6279456;20;2838913;-45
2024/02/03 03:36:42;;;;;;;;;42.00;36.50;;;;;6.60;92.26;99910.00;6275396;20;2858610;-46
2024/02/03 03:39:11;;;;;;;;;42.00;35.33;;;;;6.54;92.53;99915.59;6279076;20;3609677;-43
2024/02/03 03:41:40;;;;;;;;;41.67;36.67;;;;;6.53;92.48;99916.50;6313793;20;3591946;-43
2024/02/03 03:44:11;;;;;;;;;4.33;0.00;;;;;6.71;92.13;99915.72;6354610;20;1804468;-43
2024/02/03 03:46:40;;;;;;;;;36.67;34.33;;;;;6.62;92.14;99913.47;6281828;20;2856658;-43
2024/02/03 03:49:09;;;;;;;;;38.33;34.67;;;;;6.80;90.75;99918.03;6312198;20;3613857;-44
2024/02/03 03:51:38;;;;;;;;;42.00;35.00;;;;;6.70;90.79;99915.81;6279948;20;2851369;-43
2024/02/03 03:54:06;;;;;;;;;45.33;36.67;;;;;6.94;89.46;99916.56;6280716;20;3606527;-45
2024/02/03 03:56:36;;;;;;;;;52.67;41.33;;;;;6.86;89.34;99922.25;6274386;20;2875360;-45
2024/02/03 03:59:06;;;;;;;;;38.33;30.67;;;;;6.94;89.80;99925.44;6309009;20;3616960;-43
2024/02/03 04:01:34;;;;;;;;;40.33;34.67;;;;;6.77;90.33;99920.84;6309956;20;3619034;-43
2024/02/03 04:04:06;;;;;;;;;40.00;35.50;;;;;6.82;89.88;99918.84;6278147;20;2856533;-43
2024/02/03 04:06:35;;;;;;;;;42.00;37.00;;;;;6.82;90.25;99913.50;6279376;20;2856639;-46
2024/02/03 04:09:05;;;;;;;;;39.33;33.00;;;;;6.80;89.49;99906.50;6282147;20;3608655;-45
2024/02/03 04:11:35;;;;;;;;;37.67;35.00;;;;;6.85;90.08;99906.31;6279196;20;2864953;-44
2024/02/03 04:14:04;;;;;;;;;43.00;32.33;;;;;6.85;90.47;99906.31;6309303;20;3633621;-43
2024/02/03 04:16:33;;;;;;;;;41.00;36.67;;;;;6.92;89.59;99907.75;6275470;20;3598296;-45
2024/02/03 04:19:02;;;;;;;;;39.50;31.50;;;;;6.96;88.62;99907.56;6278042;20;2860671;-43
2024/02/03 04:21:33;;;;;;;;;34.00;30.00;;;;;6.92;89.04;99907.75;6278771;20;2856546;-44
2024/02/03 04:24:02;;;;;;;;;33.33;30.33;;;;;6.81;89.64;99906.41;6279956;20;3615888;-43
2024/02/03 04:26:33;;;;;;;;;35.67;32.33;;;;;7.02;88.63;99895.75;6279335;20;2867145;-45
2024/02/03 04:29:02;;;;;;;;;39.67;34.67;;;;;6.98;88.78;99902.19;6310075;20;3609060;-44
2024/02/03 04:31:31;;;;;;;;;35.67;31.67;;;;;6.98;88.71;99905.72;6311043;20;3605613;-44
2024/02/03 04:34:01;;;;;;;;;32.50;30.00;;;;;7.12;88.61;99905.09;6276623;20;2849313;-46
2024/02/03 04:36:31;;;;;;;;;36.67;29.67;;;;;6.98;88.15;99896.84;6275537;20;3619119;-43
2024/02/03 04:39:00;;;;;;;;;27.67;22.00;;;;;7.08;88.03;99918.66;6309921;20;2850329;-44
2024/02/03 04:41:29;;;;;;;;;36.33;29.00;;;;;6.99;88.53;99914.56;6309851;20;3616998;-44
2024/02/03 04:43:57;;;;;;;;;50.50;42.00;;;;;7.00;88.98;99916.31;6272747;20;2500305;-44
2024/02/03 04:46:26;;;;;;;;;38.33;29.67;;;;;6.97;89.00;99911.09;6279724;20;3604962;-44
2024/02/03 04:48:56;;;;;;;;;37.00;33.00;;;;;6.86;89.93;99913.38;6279978;20;2862911;-44
2024/02/03 04:51:25;;;;;;;;;41.33;35.00;;;;;6.80;90.84;99904.69;6311749;20;3627372;-43
2024/02/03 04:53:54;;;;;;;;;36.00;33.50;;;;;6.71;90.82;99901.53;6277217;20;2858633;-44
2024/02/03 04:56:23;;;;;;;;;38.00;33.00;;;;;6.92;90.17;99899.75;6277704;20;3617066;-47
2024/02/03 04:58:53;;;;;;;;;40.25;33.25;;;;;6.83;90.41;99901.03;6311059;20;3621115;-45
2024/02/03 05:01:22;;;;;;;;;39.33;33.67;;;;;6.85;90.05;99900.97;6308940;20;3620190;-45
2024/02/03 05:03:51;;;;;;;;;37.00;33.33;;;;;6.75;90.58;99901.34;6278348;20;2862903;-43
2024/02/03 05:06:23;;;;;;;;;40.33;34.00;;;;;6.84;90.93;99901.88;6306823;20;3611752;-43
2024/02/03 05:08:54;;;;;;;;;33.33;31.67;;;;;6.81;90.68;99906.41;6277502;20;2857890;-45
2024/02/03 05:11:23;;;;;;;;;34.33;33.00;;;;;6.79;91.20;99913.66;6308436;20;3610790;-43
2024/02/03 05:13:53;;;;;;;;;34.00;34.00;;;;;6.79;91.02;99905.63;6277320;20;2866949;-43
2024/02/03 05:16:21;;;;;;;;;34.67;31.00;;;;;6.72;91.75;99913.97;6310771;20;3599356;-43
2024/02/03 05:18:51;;;;;;;;;33.00;33.00;;;;;6.67;92.77;99908.81;6275448;20;2860819;-46
2024/02/03 05:21:20;;;;;;;;;33.00;30.67;;;;;6.74;91.80;99915.63;6312695;20;3594048;-44
2024/02/03 05:23:48;;;;;;;;;34.50;32.00;;;;;6.77;91.98;99904.81;6273660;20;2849448;-45
2024/02/03 05:26:18;;;;;;;;;36.67;31.00;;;;;6.77;92.22;99901.28;6278212;20;2857593;-46
2024/02/03 05:28:47;;;;;;;;;37.33;30.00;;;;;6.56;93.06;99903.06;6309588;20;3614852;-44
2024/02/03 05:31:22;;;;;;;;;37.33;32.00;;;;;6.70;92.62;99900.69;6311342;20;3605531;-44
2024/02/03 05:33:51;;;;;;;;;46.50;39.50;;;;;6.78;92.97;99901.22;6272684;20;2870160;-44
2024/02/03 05:36:21;;;;;;;;;45.67;36.33;;;;;6.70;93.21;99905.16;6277467;20;3622409;-44
2024/02/03 05:38:50;;;;;;;;;35.67;32.00;;;;;6.74;93.38;99904.06;6305796;20;3603471;-44
2024/02/03 05:41:19;;;;;;;;;39.33;32.33;;;;;6.69;93.89;99901.63;6277756;20;3615898;-46
2024/02/03 05:43:48;;;;;;;;;27.00;24.50;;;;;6.77;93.00;99904.81;6305587;20;2847262;-44
2024/02/03 05:46:17;;;;;;;;;29.50;26.50;;;;;6.87;93.21;99899.09;6276632;20;3514864;-44
2024/02/03 05:48:46;;;;;;;;;35.67;33.33;;;;;6.99;92.60;99898.56;6308277;20;2862842;-45
2024/02/03 05:51:17;;;;;;;;;35.00;33.00;;;;;6.91;92.76;99893.56;6309776;20;3604425;-45
2024/02/03 05:53:46;;;;;;;;;38.50;32.50;;;;;6.94;93.79;99898.75;6271560;20;2837874;-44
2024/02/03 05:56:15;;;;;;;;;36.33;31.00;;;;;6.87;93.52;99904.41;6279746;20;3601308;-45
2024/02/03 05:58:44;;;;;;;;;36.00;33.67;;;;;6.92;93.32;99921.09;6272723;20;2857576;-46
2024/02/03 06:01:13;;;;;;;;;39.33;35.00;;;;;7.20;91.86;99929.66;6305356;20;3586724;-44
2024/02/03 06:03:42;;;;;;;;;40.00;35.00;;;;;7.33;92.13;99929.13;6271814;20;2845157;-45
2024/02/03 06:06:11;;;;;;;;;39.00;36.33;;;;;7.33;90.90;99945.16;6277208;20;2859177;-44
2024/02/03 06:08:53;;;;;;;;;30.50;26.50;;;;;7.37;91.87;99950.31;6308964;20;2853440;-45
2024/02/03 06:11:22;;;;;;;;;31.00;29.00;;;;;7.45;90.05;99952.59;6275485;20;2853412;-46
2024/02/03 06:13:52;;;;;;;;;32.00;30.00;;;;;7.41;90.82;99948.34;6275656;20;2852485;-44
2024/02/03 06:16:21;;;;;;;;;31.33;25.67;;;;;7.25;92.46;99949.03;6304800;20;3598201;-45
2024/02/03 06:18:50;;;;;;;;;34.67;32.00;;;;;7.48;90.28;99958.69;6307514;20;3615911;-44
2024/02/03 06:21:19;;;;;;;;;34.00;33.33;;;;;7.47;89.99;99972.09;6276347;20;2860945;-49
2024/02/03 06:23:48;;;;;;;;;37.00;30.67;;;;;7.52;90.17;99978.13;6307531;20;3611713;-45
2024/02/03 06:26:17;;;;;;;;;39.00;35.50;;;;;7.53;89.95;99971.84;6277058;20;2846275;-44
2024/02/03 06:28:46;;;;;;;;;50.50;43.00;;;;;7.62;89.61;99968.75;6276089;20;2859693;-44
2024/02/03 06:31:15;;;;;;;;;61.00;49.00;;;;;7.51;90.33;99975.53;6273534;20;2876420;-46
2024/02/03 06:33:45;;;;;;;;;53.33;40.67;;;;;7.52;91.09;99978.13;6304864;20;3617087;-44
2024/02/03 06:36:15;;;;;;;;;38.00;26.67;;;;;7.55;91.29;99982.47;6308731;20;3628386;-46
2024/02/03 06:38:44;;;;;;;;;32.33;29.67;;;;;7.57;91.74;99980.59;6308506;20;3592000;-44
2024/02/03 06:41:18;;;;;;;;;32.00;28.33;;;;;7.95;89.84;99981.50;6276068;20;2860706;-44
2024/02/03 06:43:46;;;;;;;;;29.50;25.00;;;;;7.80;90.62;99982.25;6305174;20;2853415;-45
2024/02/03 06:46:17;;;;;;;;;28.00;24.00;;;;;7.91;90.88;99988.81;6278836;20;2850282;-45
2024/02/03 06:48:47;;;;;;;;;29.67;27.00;;;;;7.93;89.92;99994.09;6310437;20;2852356;-44
2024/02/03 06:51:16;;;;;;;;;29.00;25.00;;;;;7.86;89.99;99992.66;6312505;20;2852359;-44
2024/02/03 06:53:45;;;;;;;;;30.00;28.50;;;;;7.96;89.76;99991.28;6281172;20;2848198;-43
2024/02/03 06:56:13;;;;;;;;;26.00;24.00;;;;;8.05;89.90;99987.31;6280690;20;2837998;-44
2024/02/03 06:58:43;;;;;;;;;32.33;30.33;;;;;8.11;89.69;99989.72;6282002;20;2857573;-43
2024/02/03 07:01:12;;;;;;;;;24.50;23.50;;;;;8.23;89.61;99990.94;6310484;20;2837897;-44
2024/02/03 07:03:41;;;;;;;;;29.50;24.50;;;;;8.16;88.60;99982.31;6279552;20;2854486;-46
2024/02/03 07:06:10;;;;;;;;;30.00;30.00;;;;;8.27;88.62;99973.81;6280175;20;2846158;-45
2024/02/03 07:08:38;;;;;;;;;25.00;22.50;;;;;8.20;88.74;99988.41;6278177;20;2848198;-45
2024/02/03 07:11:07;;;;;;;;;33.00;31.50;;;;;8.24;88.77;99979.28;6277605;20;2846111;-45
2024/02/03 07:13:36;;;;;;;;;30.00;28.50;;;;;8.38;87.97;99984.88;6280153;20;2855675;-46
2024/02/03 07:16:06;;;;;;;;;27.00;23.00;;;;;8.32;88.58;99975.34;6280785;20;2850288;-44
2024/02/03 07:18:34;;;;;;;;;24.50;21.00;;;;;8.43;88.32;99985.56;6280453;20;2852472;-44
2024/02/03 07:21:02;;;;;;;;;26.50;23.00;;;;;8.48;88.52;99990.69;6279135;20;2500311;-47
2024/02/03 07:23:31;;;;;;;;;24.00;22.00;;;;;8.34;88.98;99981.44;6278202;20;2841998;-44
2024/02/03 07:25:59;;;;;;;;;25.00;20.00;;;;;8.59;87.89;99990.19;6277013;20;2500303;-45
2024/02/03 07:28:27;;;;;;;;;25.50;23.00;;;;;8.48;87.93;99991.56;6279162;20;2841945;-44
2024/02/03 07:30:55;;;;;;;;;21.00;20.00;;;;;8.83;85.92;99997.00;6278860;20;2500409;-48
2024/02/03 07:33:24;;;;;;;;;22.50;19.50;;;;;8.64;86.47;99991.69;6278752;20;2842180;-45
2024/02/03 07:35:52;;;;;;;;;20.00;20.00;;;;;8.74;86.55;99992.06;6279937;20;2500367;-47
2024/02/03 07:38:20;;;;;;;;;21.00;18.50;;;;;8.71;86.31;99982.38;6273500;20;2500305;-45
2024/02/03 07:40:48;;;;;;;;;20.00;17.00;;;;;8.81;85.84;99987.31;6280288;20;2500511;-47
2024/02/03 07:43:15;;;;;;;;;18.50;18.00;;;;;8.89;86.20;99988.66;6280140;20;2500351;-44
2024/02/03 07:45:46;;;;;;;;;20.00;18.00;;;;;8.88;85.99;99984.25;6278894;20;2498202;-47
2024/02/03 07:48:14;;;;;;;;;17.00;17.00;;;;;9.01;85.50;99989.84;6277783;20;2500313;-47
2024/02/03 07:50:42;;;;;;;;;22.50;19.50;;;;;8.95;85.32;99983.00;6281138;20;2846536;-46
2024/02/03 07:53:10;;;;;;;;;16.00;15.50;;;;;8.97;85.14;99974.88;6279042;20;2821140;-45
2024/02/03 07:55:38;;;;;;;;;18.50;17.50;;;;;8.98;85.12;99984.66;6279436;20;2494034;-44
2024/02/03 07:58:06;;;;;;;;;15.00;15.00;;;;;9.21;84.26;99987.00;6281004;20;2797229;-47
2024/02/03 08:00:34;;;;;;;;;17.50;15.50;;;;;9.36;83.18;99980.00;6281856;20;2823250;-45
2024/02/03 08:03:02;;;;;;;;;18.50;16.00;;;;;9.41;82.94;99982.47;6280063;20;2829593;-45
2024/02/03 08:05:31;;;;;;;;;14.33;12.33;;;;;9.59;82.01;99986.84;6278901;20;2797390;-45
2024/02/03 08:08:00;;;;;;;;;11.00;11.00;;;;;10.28;79.09;99988.50;6309738;20;3509641;-46
2024/02/03 08:10:28;;;;;;;;;19.00;15.00;;;;;10.79;75.45;99980.25;6310160;20;3546109;-45
2024/02/03 08:12:56;;;;;;;;;13.50;12.00;;;;;10.74;75.45;99982.34;6312960;20;2808608;-45
2024/02/03 08:15:25;;;;;;;;;11.00;10.00;;;;;10.59;74.68;99978.75;6283322;20;2786861;-47
2024/02/03 08:17:53;;;;;;;;;17.33;15.33;;;;;10.87;74.06;99974.44;6280024;20;3550291;-45
2024/02/03 08:20:21;;;;;;;;;16.00;15.50;;;;;10.92;73.45;99972.38;6308079;20;2487917;-44
2024/02/03 08:22:52;;;;;;;;;14.00;11.00;;;;;10.74;72.83;99963.56;6284053;20;2793067;-44
2024/02/03 08:25:20;;;;;;;;;10.00;9.00;;;;;10.84;72.53;99961.22;6281879;20;2776319;-47
2024/02/03 08:27:47;;;;;;;;;12.00;10.00;;;;;10.80;72.47;99954.28;6280957;20;2786768;-47
2024/02/03 08:30:16;;;;;;;;;20.33;16.67;;;;;11.06;71.91;99956.31;6280218;20;2826412;-44
2024/02/03 08:32:44;;;;;;;;;11.50;11.50;;;;;10.97;71.49;99951.47;6315130;20;2794139;-46
2024/02/03 08:35:12;;;;;;;;;8.00;8.00;;;;;11.09;70.95;99928.41;6283092;20;2741968;-46
2024/02/03 08:37:43;;;;;;;;;22.50;21.00;;;;;11.30;70.45;99945.06;6280511;20;2846179;-46
2024/02/03 08:40:13;;;;;;;;;11.00;11.00;;;;;11.17;71.20;99947.63;6277174;20;2788860;-46
2024/02/03 08:42:41;;;;;;;;;9.00;9.00;;;;;11.27;70.70;99954.16;6312693;20;2759831;-44
2024/02/03 08:45:09;;;;;;;;;15.00;12.00;;;;;11.56;69.34;99963.16;6315365;20;2783643;-46
2024/02/03 08:47:39;;;;;;;;;12.00;11.67;;;;;11.55;69.02;99963.22;6276771;20;3503467;-45
2024/02/03 08:50:07;;;;;;;;;14.50;12.00;;;;;12.08;66.32;99968.00;6312355;20;2797222;-45
2024/02/03 08:52:36;;;;;;;;;12.33;12.00;;;;;12.00;66.04;99978.38;6279618;20;2793226;-44
2024/02/03 08:55:05;;;;;;;;;11.67;11.67;;;;;12.21;65.64;99980.69;6309458;20;2790071;-47
2024/02/03 08:57:33;;;;;;;;;10.00;10.00;;;;;11.10;69.74;99990.09;6317202;20;2792973;-48
2024/02/03 09:00:04;;;;;;;;;21.00;13.00;;;;;10.99;70.36;99981.81;6284983;20;2814885;-46
2024/02/03 09:02:33;;;;;;;;;13.00;12.33;;;;;10.97;70.67;99981.88;6276169;20;3515919;-46
2024/02/03 09:05:02;;;;;;;;;17.00;14.00;;;;;11.27;70.06;99989.13;6307004;20;3527453;-46
2024/02/03 09:07:35;;;;;;;;;9.00;9.00;;;;;11.10;70.12;99994.59;6284359;20;2748283;-46
2024/02/03 09:10:04;;;;;;;;;11.50;11.50;;;;;10.94;71.93;99994.63;6282507;20;2797182;-46
2024/02/03 09:12:32;;;;;;;;;11.00;9.00;;;;;11.23;70.24;99994.75;6280663;20;2768018;-45
2024/02/03 09:15:00;;;;;;;;;12.00;11.00;;;;;11.19;70.40;99981.50;6277000;20;2791014;-44
2024/02/03 09:17:29;;;;;;;;;11.33;11.00;;;;;11.37;69.94;99992.09;6308075;20;2794153;-47
2024/02/03 09:19:57;;;;;;;;;15.00;12.00;;;;;11.15;70.12;99988.00;6307804;20;2799414;-47
2024/02/03 09:22:26;;;;;;;;;13.33;13.00;;;;;11.91;67.82;99987.03;6307053;20;2791954;-48
2024/02/03 09:24:54;;;;;;;;;14.50;11.50;;;;;12.32;66.75;99997.00;6307982;20;2669063;-45
2024/02/03 09:27:23;;;;;;;;;16.67;13.00;;;;;12.26;67.65;99987.50;6306520;20;3532590;-46
2024/02/03 09:29:51;;;;;;;;;11.00;9.00;;;;;12.29;71.29;99989.97;6310497;20;2768110;-46
2024/02/03 09:32:23;;;;;;;;;18.33;14.33;;;;;12.29;66.11;99995.38;6280019;20;3536790;-45
2024/02/03 09:34:52;;;;;;;;;14.33;12.67;;;;;11.62;69.34;100000.41;6276432;20;3522148;-45
2024/02/03 09:37:20;;;;;;;;;15.00;13.00;;;;;11.90;67.84;99993.38;6302946;20;2790897;-45
2024/02/03 09:39:51;;;;;;;;;10.00;10.00;;;;;11.66;68.40;100003.78;6276520;20;2782701;-45
2024/02/03 09:42:19;;;;;;;;;18.50;12.50;;;;;11.88;68.30;100002.50;6312521;20;2809672;-45
2024/02/03 09:44:47;;;;;;;;;12.00;11.00;;;;;11.77;68.90;100004.00;6275523;20;2796114;-44
2024/02/03 09:47:16;;;;;;;;;14.00;13.00;;;;;12.27;66.04;100007.22;6277497;20;2805660;-48
2024/02/03 09:49:44;;;;;;;;;11.00;11.00;;;;;12.18;66.42;99999.72;6280090;20;2794113;-44
2024/02/03 09:52:14;;;;;;;;;9.50;9.50;;;;;12.55;65.71;99998.22;6279653;20;2769028;-47
2024/02/03 09:54:46;;;;;;;;;20.50;15.50;;;;;13.09;62.90;99986.63;6272535;20;2827384;-45
2024/02/03 09:57:15;;;;;;;;;17.67;14.33;;;;;12.67;63.30;99980.41;6277597;20;3536869;-45
2024/02/03 09:59:50;;;;;;;;;19.50;16.00;;;;;12.22;63.85;99977.91;6275074;20;2500413;-45
2024/02/03 10:02:19;;;;;;;;;10.00;9.50;;;;;12.86;63.34;99974.66;6279290;20;2769064;-45
2024/02/03 10:04:49;;;;;;;;;9.80;7.00;;;;;11.90;64.28;99973.66;6301915;20;2752454;-45
2024/02/03 10:07:20;;;;;;;;;11.00;11.00;;;;;12.10;64.85;99975.13;6313836;20;2794029;-45
2024/02/03 10:09:48;;;;;;;;;7.00;7.00;;;;;11.98;65.08;99971.34;6281945;20;2738878;-45
2024/02/03 10:12:22;;;;;;;;;7.00;6.00;;;;;11.99;64.96;99968.59;6320307;20;1796172;-46
2024/02/03 10:15:05;;;;;;;;;10.00;10.00;;;;;11.87;65.75;99972.03;6308642;20;2779449;-46
2024/02/03 10:17:35;;;;;;;;;13.00;10.50;;;;;12.08;64.90;99976.09;6276707;20;2789948;-44
2024/02/03 10:20:05;;;;;;;;;10.00;9.00;;;;;11.62;66.37;99970.84;6278058;20;2778434;-45
2024/02/03 10:22:36;;;;;;;;;10.67;10.67;;;;;11.68;66.20;99964.22;6280404;20;3514287;-45
2024/02/03 10:25:09;;;;;;;;;9.00;9.00;;;;;12.11;66.32;99960.69;6312322;20;2738863;-45
2024/02/03 10:27:41;;;;;;;;;12.00;9.50;;;;;12.34;66.56;99954.69;6289628;20;2777404;-46
2024/02/03 10:30:18;;;;;;;;;12.60;10.00;;;;;11.98;68.03;99958.78;6305972;20;2789916;-44
2024/02/03 10:32:48;;;;;;;;;11.00;10.00;;;;;12.22;65.58;99959.06;6283269;20;2789980;-47
2024/02/03 10:35:16;;;;;;;;;10.00;10.00;;;;;12.10;65.63;99954.44;6317652;20;2792123;-45
2024/02/03 10:37:44;;;;;;;;;15.00;13.50;;;;;12.29;67.78;99951.44;6288848;20;2794007;-45
2024/02/03 10:40:12;;;;;;;;;14.00;11.00;;;;;12.24;65.68;99967.91;6282053;20;2798283;-45
2024/02/03 10:42:43;;;;;;;;;11.00;10.50;;;;;12.40;67.36;99959.69;6288135;20;2790116;-49
2024/02/03 10:45:11;;;;;;;;;10.50;10.50;;;;;12.17;64.63;99953.09;6286327;20;2796133;-45
2024/02/03 10:47:43;;;;;;;;;9.00;9.00;;;;;12.45;64.36;99957.56;6279364;20;2766943;-45
2024/02/03 10:50:14;;;;;;;;;11.00;10.00;;;;;12.57;63.91;99961.28;6279066;20;2782586;-44
2024/02/03 10:52:46;;;;;;;;;14.00;12.00;;;;;12.04;65.29;99955.69;6313933;20;2786747;-49
2024/02/03 10:55:19;;;;;;;;;11.80;9.00;;;;;11.76;65.84;99951.16;6306407;20;2776480;-46
2024/02/03 10:57:49;;;;;;;;;12.33;12.33;;;;;11.99;65.98;99952.44;6273992;20;3512778;-44
2024/02/03 11:00:18;;;;;;;;;14.00;10.00;;;;;12.46;64.25;99956.59;6309229;20;2792098;-45
2024/02/03 11:02:53;;;;;;;;;10.50;9.00;;;;;12.05;65.26;99946.66;6281329;20;2750294;-44
2024/02/03 11:05:29;;;;;;;;;10.00;9.00;;;;;11.97;65.02;99946.28;6282588;20;2767040;-46
2024/02/03 11:08:11;;;;;;;;;8.50;8.50;;;;;12.11;64.59;99940.00;6285310;20;2752451;-43
2024/02/03 11:10:40;;;;;;;;;12.50;10.00;;;;;11.97;64.49;99932.81;6283837;20;2786861;-46
2024/02/03 11:13:21;;;;;;;;;8.00;8.00;;;;;11.89;64.80;99936.97;6283849;20;2739873;-45
2024/02/03 11:15:58;;;;;;;;;13.00;10.00;;;;;12.00;64.60;99924.56;6287569;20;2589895;-44
2024/02/03 11:18:27;;;;;;;;;10.00;8.00;;;;;11.97;64.42;99905.91;6282057;20;2760182;-45